Terminal Aerodrome Forecast
Issued by NWS

Home | Current Version | Previous Version | Text Only | Print | Product List | Glossary On
Versions: 1 2 3 4 5 6 7 8 9 10 11 12 13 14 15 16 17 18 19 20 21 22 23 24 25 26 27 28
281
FTUS41 KOKX 270550
TAFSWF
TAF
KSWF 270550Z 2706/2812 20006KT P6SM SCT250
     FM270800 VRB04KT P6SM SCT100 BKN250
     FM271300 22007KT P6SM BKN250
     FM271800 23009KT P6SM VCSH BKN120 BKN250
     FM280000 VRB04KT P6SM FEW050 BKN250
     FM280300 VRB02KT 4SM BR BKN100
      AMD NOT SKED=

USA.gov is the U.S. government's official web portal to all federal, state and local government web resources and services.